Thursday, July 30, 2015, 4:11 PM EDT

KEZF, Fredericksburg, Shannon Airport

Location: Fredericksburg, VA, United States Lat: 38.267
Local Time: 4:11 PM EDT (20:11 GMT) Lon: -77.45
Time Zone: US/Eastern Elev: 85 ft

Show me the last for .
Show Decoded

2015-07-30 15:35 METAR KEZF 301935Z AUTO 35009G14KT 10SM -RA SCT022 SCT033 BKN040 29/25 A2985 RMK
                 AO2 T02860250 =
2015-07-30 15:15 METAR KEZF 301915Z AUTO 25003KT 10SM -DZ SCT040 SCT050 32/25 A2985 RMK AO2
                 T03150247 =
2015-07-30 14:55 METAR KEZF 301855Z AUTO 20007KT 10SM SCT042 SCT048 34/24 A2985 RMK AO2 T03350240
                 =
2015-07-30 14:35 METAR KEZF 301835Z AUTO 18006KT 10SM SCT038 SCT045 34/24 A2985 RMK AO2 T03390240
                 =
2015-07-30 14:15 METAR KEZF 301815Z AUTO 22010KT 10SM SCT038 SCT060 34/24 A2987 RMK AO2 T03390240
                 =
2015-07-30 13:55 METAR KEZF 301755Z AUTO 20008KT 10SM SCT034 SCT041 SCT060 34/24 A2987 RMK AO2
                 T03400242 10341 20255 =
2015-07-30 13:35 METAR KEZF 301735Z AUTO 22008KT 10SM SCT034 SCT041 SCT060 34/24 A2987 RMK AO2
                 T03380244 =
2015-07-30 13:15 METAR KEZF 301715Z AUTO 21006G14KT 10SM CLR 33/24 A2989 RMK AO2 T03340244 =
2015-07-30 12:55 METAR KEZF 301655Z AUTO 21008KT 10SM SCT031 SCT040 33/24 A2990 RMK AO2 T03340242
                 =
2015-07-30 12:35 METAR KEZF 301635Z AUTO 22006KT 10SM SCT031 SCT040 33/24 A2991 RMK AO2 T03250242
                 =
2015-07-30 12:15 METAR KEZF 301615Z AUTO 22006KT 10SM SCT029 SCT110 33/24 A2991 RMK AO2 T03260244
                 =
2015-07-30 11:55 METAR KEZF 301555Z AUTO 20006KT 10SM SCT029 SCT110 32/24 A2992 RMK AO2 T03220242
                 =
2015-07-30 11:35 METAR KEZF 301535Z AUTO 21010KT 10SM SCT027 32/24 A2992 RMK AO2 T03170240 =
2015-07-30 11:15 METAR KEZF 301515Z AUTO 23005KT 10SM CLR 32/24 A2992 RMK AO2 T03170244 =
2015-07-30 10:55 METAR KEZF 301455Z AUTO 18008KT 10SM CLR 31/24 A2992 RMK AO2 T03110241 =
2015-07-30 10:15 METAR KEZF 301415Z AUTO 22007KT 10SM CLR 30/24 A2992 RMK AO2 T02990238 =
2015-07-30 09:55 METAR KEZF 301355Z AUTO 18006KT 10SM CLR 29/24 A2992 RMK AO2 T02920235 =
2015-07-30 09:35 METAR KEZF 301335Z AUTO 21005KT 10SM CLR 28/23 A2992 RMK AO2 T02820232 =
2015-07-30 09:15 METAR KEZF 301315Z AUTO 22005KT 10SM CLR 28/23 A2992 RMK AO2 T02780233 =
2015-07-30 08:55 METAR KEZF 301255Z AUTO 22006KT 10SM CLR 28/23 A2993 RMK AO2 T02780234 =
2015-07-30 08:35 METAR KEZF 301235Z AUTO 22005KT 10SM CLR 27/23 A2992 RMK AO2 T02690232 =
2015-07-30 07:55 METAR KEZF 301155Z AUTO 18004KT 10SM CLR 26/25 A2992 RMK AO2 T02550247 10260
                 20246 =
2015-07-30 07:35 METAR KEZF 301135Z AUTO 17003KT 10SM CLR 25/25 A2992 RMK AO2 T02520247 =
2015-07-30 07:15 METAR KEZF 301115Z AUTO 17004KT 10SM CLR 25/25 A2993 RMK AO2 T02510246 =
2015-07-30 06:55 METAR KEZF 301055Z AUTO 20005KT 10SM CLR 25/25 A2993 RMK AO2 T02500246 =
2015-07-30 06:35 METAR KEZF 301035Z AUTO 19005KT 10SM CLR 25/25 A2993 RMK AO2 T02500246 =
2015-07-30 06:15 METAR KEZF 301015Z AUTO 19005KT 10SM CLR 25/25 A2993 RMK AO2 T02480247 =
2015-07-30 05:55 METAR KEZF 300955Z AUTO 18003KT 10SM CLR 25/25 A2992 RMK AO2 T02470247 =
2015-07-30 05:35 METAR KEZF 300935Z AUTO 19006KT 10SM CLR 25/25 A2992 RMK AO2 T02480247 =
2015-07-30 05:15 METAR KEZF 300915Z AUTO 18006KT 10SM CLR 25/25 A2992 RMK AO2 T02500248 =
2015-07-30 04:55 METAR KEZF 300855Z AUTO 19006KT 10SM CLR 25/25 A2992 RMK AO2 T02500249 =
2015-07-30 04:35 METAR KEZF 300835Z AUTO 18005KT 10SM CLR 25/25 A2992 RMK AO2 T02500250 =
2015-07-30 04:15 METAR KEZF 300815Z AUTO 19004KT 10SM CLR 25/25 A2992 RMK AO2 T02530250 =
2015-07-30 03:55 METAR KEZF 300755Z AUTO 19003KT 10SM CLR 26/25 A2993 RMK AO2 T02550251 =
2015-07-30 03:35 METAR KEZF 300735Z AUTO 18006KT 10SM CLR 26/25 A2993 RMK AO2 T02560252 =
2015-07-30 03:15 METAR KEZF 300715Z AUTO 18005KT 10SM CLR 26/25 A2993 RMK AO2 T02580254 =
2015-07-30 02:55 METAR KEZF 300655Z AUTO 18006KT 10SM CLR 26/26 A2993 RMK AO2 T02590257 =
2015-07-30 02:35 METAR KEZF 300635Z AUTO 19005KT 10SM SCT037 SCT042 SCT050 26/26 A2994 RMK AO2
                 T02570257 =
2015-07-30 02:15 METAR KEZF 300615Z AUTO 18004KT 10SM SCT039 SCT044 SCT060 26/26 A2994 RMK AO2
                 T02550255 =
2015-07-30 01:55 METAR KEZF 300555Z AUTO 00000KT 10SM BKN041 BKN048 BKN060 25/25 A2995 RMK AO2
                 T02500250 10286 20250 403221140 =
2015-07-30 01:35 METAR KEZF 300535Z AUTO 00000KT 10SM SCT045 26/26 A2995 RMK AO2 T02550255 =
2015-07-30 01:15 METAR KEZF 300515Z AUTO 00000KT 10SM SCT045 25/25 A2996 RMK AO2 T02540254 =
2015-07-30 00:55 METAR KEZF 300455Z AUTO 16003KT 10SM CLR 26/26 A2996 RMK AO2 T02550255 =
2015-07-30 00:35 METAR KEZF 300435Z AUTO 17003KT 10SM BKN043 25/25 A2996 RMK AO2 T02540254 =
2015-07-30 00:15 METAR KEZF 300415Z AUTO 15004KT 10SM SCT043 26/25 A2996 RMK AO2 T02550253 =
2015-07-29 23:55 METAR KEZF 300355Z AUTO 13004KT 10SM CLR 26/25 A2996 RMK AO2 T02580251 =
2015-07-29 23:35 METAR KEZF 300335Z AUTO 16004KT 10SM CLR 26/25 A2995 RMK AO2 T02590251 =
2015-07-29 22:35 METAR KEZF 300235Z AUTO 00000KT 10SM CLR 26/25 A2997 RMK AO2 T02580250 =
2015-07-29 22:15 METAR KEZF 300215Z AUTO 00000KT 10SM CLR 26/25 A2997 RMK AO2 T02570248 =
2015-07-29 21:55 METAR KEZF 300155Z AUTO 00000KT 10SM CLR 26/24 A2997 RMK AO2 T02620237 =
2015-07-29 21:35 METAR KEZF 300135Z AUTO 00000KT 10SM CLR 26/24 A2996 RMK AO2 T02630236 =
2015-07-29 21:15 METAR KEZF 300115Z AUTO 14003KT 10SM CLR 26/24 A2995 RMK AO2 T02630238 =
2015-07-29 20:55 METAR KEZF 300055Z AUTO 15003KT 10SM CLR 27/24 A2995 RMK AO2 T02700239 =
2015-07-29 20:35 METAR KEZF 300035Z AUTO 17004KT 10SM CLR 28/24 A2995 RMK AO2 T02800235 =
2015-07-29 20:15 METAR KEZF 300015Z AUTO 18004KT 10SM CLR 28/24 A2994 RMK AO2 T02840235 =
2015-07-29 19:55 METAR KEZF 292355Z AUTO 17003KT 10SM CLR 29/24 A2994 RMK AO2 T02860236 10322
                 20285 =
2015-07-29 19:35 METAR KEZF 292335Z AUTO 15004KT 10SM CLR 29/24 A2994 RMK AO2 T02920235 =
2015-07-29 19:15 METAR KEZF 292315Z AUTO 17006KT 10SM CLR 30/23 A2994 RMK AO2 T03020230 =
2015-07-29 18:55 METAR KEZF 292255Z AUTO 17007KT 10SM CLR 31/23 A2993 RMK AO2 T03060231 =
2015-07-29 18:35 METAR KEZF 292235Z AUTO 17009KT 10SM CLR 31/23 A2993 RMK AO2 T03060230 =
2015-07-29 18:15 METAR KEZF 292215Z AUTO 17007KT 10SM CLR 31/23 A2993 RMK AO2 T03090230 =
2015-07-29 17:55 METAR KEZF 292155Z AUTO 17010KT 10SM CLR 31/23 A2994 RMK AO2 T03120227 =
2015-07-29 17:35 METAR KEZF 292135Z AUTO 17009KT 10SM CLR 31/23 A2994 RMK AO2 T03120227 =
2015-07-29 17:15 METAR KEZF 292115Z AUTO 17010KT 10SM CLR 32/23 A2995 RMK AO2 T03150229 =
2015-07-29 16:55 METAR KEZF 292055Z AUTO 18008KT 10SM CLR 31/23 A2996 RMK AO2 T03140234 =
2015-07-29 16:35 METAR KEZF 292035Z AUTO 18007KT 10SM SCT085 32/23 A2996 RMK AO2 T03150229 =
2015-07-29 16:15 METAR KEZF 292015Z AUTO 20007KT 10SM CLR 32/23 A2997 RMK AO2 T03150227 =

Support USWX by starting your Amazon purchase here.